Tijuana, México

2:46 PM PDT en Septiembre 18, 2014 (GMT -0700)
Proteccion Civil Tijuana | Change Station
CLOSE
Current Station
Estación meteorológica personal
Location: TIJUANA, BAJA CALIFORNIA
Altura: 396 ft
Estaciones meteorológicas cercanas

Alt 396 ft 32.53 °N, 116.99 °W | Updated 7 minutes ago

Clear
Despejado
75.3 ° F
Sensación térmica 76 ° F
N
21.0
Viento Variable Viento desde SO

Hoy
Alta -- | Baja -- ° F
--% Posibilidad de precipitaciones
Ayer
Alta -- | Baja -- ° F
Precip. -- pul
6:33 AM 6:49 PM
Creciente menguante, 24% visible
Presión 29.84 pul
Visibilidad 10.0 Millas
Nubes Despejado
Índice de calor 76 ° F
Punto de rocío 68 ° F
Humedad 77%
Precipitaciones 0.00 pul
Espesor de la nieve No disponible.
UV 8 de una escala de 12
Polen No disponible.
Calidad del aire No disponible.
Flu Activity No disponible.
METAR KSDM 182053Z 27009KT 10SM CLR 26/18 A2986 RMK AO2 SLP105 T02610183 58012 $

More Conditions Fewer Conditions

Presión 29.84 pul
Visibilidad 10.0 Millas
Nubes Despejado
Índice de calor 76 ° F
Punto de rocío 68 ° F
Humedad 77%
Precipitaciones 0.00 pul
Espesor de la nieve No disponible.
UV 8 de una escala de 12
Polen No disponible.
Calidad del aire No disponible.
Flu Activity No disponible.
METAR KSDM 182053Z 27009KT 10SM CLR 26/18 A2986 RMK AO2 SLP105 T02610183 58012 $

More Conditions Fewer Conditions

10-Day Weather Forecast

Almanac

Astronomía

Sep. 18, 2014 Salida Puesta
Hora real 6:33 AM PDT 6:49 PM PDT
Crepúsculo civil 6:08 AM PDT 7:14 PM PDT
Crepúsculo náutico 5:40 AM PDT 7:43 PM PDT
Crepúsculo astronómico 5:11 AM PDT 8:12 PM PDT
Luna 1:42 AM PDT 3:32 PM PDT
Horas de luz 13h 05m
Horas de luz
12h 16m
Tomorrow will be 2m 0s shorter.
Creciente menguante, 24% of the Moon is Illuminated
Hoy
Creciente menguante
Sep 24
Nueva
Oct 1
Cuarto creciente
Oct 8
Luna llena
Oct 15
Cuarto menguante

Extremos de hoy

Máximos del país Bajas del país

Community

WunderPhotos

Upload Photos

1,754,452 ¡fotos cargadas!

WunderBlogs® & News

Nearby

Calidad del aire

Not available.

Grosos de nieve

Not available.

Actividad de terremotos

Ciudad Distance Mag. Tiempo y dato
La Quinta, California 73 Millas 2.7 8:59 PM PDT
2014-09-15
Magnitud mínima muestra es 2,5.

Temperaturas de aguas costeras

Lugar Temperatura
Sin partes meteorológicos de las estaciones

Estaciones meteorológicas cercanas